EmailTwitter


Surface observations / Quebec / CYMX

Regions: Quebec | Canada | USA | Europe | France | UK | Elsewhere
Station
Display
Info & Location for CYMX | Help decoding METAR

Weather Conditions observed on 2019/02/19 at 22:00 UTC at MONTREAL MIRABEL, QB (CYMX)

Sky conditions: few clouds.

Temperature: -11.0 Celsius.

Dewpoint: -19.0 Celsius.

Relative Humidity: 52%

Windchill Factor: -18.

Windchill Factor (Gusts): -21.

Winds: Southwest at 17 km/h or 9 knots.

Gust: 33 km/h or 18 knots.

Mean Sea level Pressure: 103.41 kilopascals.

Altimeter Setting (QNH): 103.32 kilopascals or 30.51 inches of mercury.

Horizontal visibility: 45.00 statute miles or 72.00 kilometers.

Coded METAR:

CYMX 192200Z 24009G18KT 45SM FEW260 M11/M19 A3051 RMK CI1 CI TR SLP341=